Terminal Aerodrome Forecast
Issued by NWS Binghamton, NY

Home | Current Version | Previous Version | Text Only | Print | Product List | Glossary On
Versions: 1 2 3 4 5 6 7 8 9 10 11 12 13 14 15 16 17 18 19 20
000
FTUS41 KBGM 302300
TAFBGM
TAF
KBGM 302334Z 3100/3124 18009KT P6SM BKN015
      TEMPO 3101/3105 SCT015
     FM311100 20007KT 5SM BR OVC009
     FM311500 24009KT P6SM BKN020
      TEMPO 3115/3119 4SM -SHRA OVC012=

USA.gov is the U.S. government's official web portal to all federal, state and local government web resources and services.